createdAt,value
2019-04-22T00:01:31.229Z,99.90
2019-04-22T00:04:03.615Z,99.90
2019-04-22T00:06:54.164Z,99.90
2019-04-22T00:09:24.173Z,99.90
2019-04-22T00:11:56.775Z,99.90
2019-04-22T00:14:19.169Z,99.90
2019-04-22T00:16:51.815Z,99.90
2019-04-22T00:22:20.169Z,99.90
2019-04-22T00:24:38.129Z,99.90
2019-04-22T00:27:14.049Z,99.90
2019-04-22T00:32:24.507Z,99.90
2019-04-22T00:34:59.274Z,99.90
2019-04-22T00:37:28.335Z,99.90
2019-04-22T00:39:57.525Z,99.90
2019-04-22T00:42:36.087Z,99.90
2019-04-22T00:47:34.930Z,99.90
2019-04-22T00:50:14.589Z,99.90
2019-04-22T00:52:28.092Z,99.90
2019-04-22T00:55:06.080Z,99.90
2019-04-22T00:57:27.873Z,99.90
2019-04-22T01:00:03.686Z,99.90
2019-04-22T01:02:34.670Z,99.90
2019-04-22T01:05:04.028Z,99.90
2019-04-22T01:07:30.094Z,99.90
2019-04-22T01:10:09.291Z,99.90
2019-04-22T01:15:01.050Z,99.90
2019-04-22T01:17:33.587Z,99.90
2019-04-22T01:22:27.156Z,99.90
2019-04-22T01:27:26.248Z,99.90
2019-04-22T01:29:52.605Z,99.90
2019-04-22T01:32:15.295Z,99.90
2019-04-22T01:35:00.659Z,99.90
2019-04-22T01:37:28.824Z,99.90
2019-04-22T01:40:14.784Z,99.90
2019-04-22T01:42:45.350Z,99.90
2019-04-22T01:45:14.266Z,99.90
2019-04-22T01:47:36.696Z,99.90
2019-04-22T01:50:06.282Z,99.90
2019-04-22T01:52:41.560Z,99.90
2019-04-22T01:55:14.062Z,99.90
2019-04-22T01:57:39.921Z,99.90
2019-04-22T02:00:00.919Z,99.90
2019-04-22T02:02:39.937Z,99.90
2019-04-22T02:05:12.246Z,99.90
2019-04-22T02:07:34.351Z,99.90
2019-04-22T02:10:12.250Z,99.90
2019-04-22T02:12:43.447Z,99.90
2019-04-22T02:15:09.205Z,99.90
2019-04-22T02:17:36.856Z,99.90
2019-04-22T02:20:12.334Z,99.90
2019-04-22T02:23:00.428Z,99.90
2019-04-22T02:25:08.410Z,99.90
2019-04-22T02:27:39.043Z,99.90
2019-04-22T02:30:08.470Z,99.90
2019-04-22T02:32:48.224Z,99.90
2019-04-22T02:35:11.113Z,99.90
2019-04-22T02:37:41.640Z,99.90
2019-04-22T02:40:14.014Z,99.90
2019-04-22T02:42:32.370Z,99.90
2019-04-22T02:45:13.755Z,99.90
2019-04-22T02:47:47.567Z,99.90
2019-04-22T02:50:05.104Z,99.90
2019-04-22T02:52:39.443Z,99.90
2019-04-22T02:55:11.585Z,99.90
2019-04-22T02:57:39.298Z,99.90
2019-04-22T03:02:45.966Z,99.90
2019-04-22T03:05:08.832Z,99.90
2019-04-22T03:07:32.294Z,99.90
2019-04-22T03:12:33.465Z,99.90
2019-04-22T03:15:04.867Z,99.90
2019-04-22T03:17:38.251Z,99.90
2019-04-22T03:22:38.939Z,99.90
2019-04-22T03:25:32.436Z,99.90
2019-04-22T03:27:30.085Z,99.90
2019-04-22T03:35:34.547Z,99.90
2019-04-22T03:37:53.394Z,99.90
2019-04-22T03:40:14.343Z,99.90
2019-04-22T03:42:45.643Z,99.90
2019-04-22T03:45:19.277Z,99.90
2019-04-22T03:50:16.436Z,99.90
2019-04-22T03:55:26.104Z,99.90
2019-04-22T03:57:46.428Z,99.90
2019-04-22T04:02:46.905Z,99.90
2019-04-22T04:05:12.454Z,99.90
2019-04-22T04:10:20.063Z,99.90
2019-04-22T04:15:28.406Z,99.90
2019-04-22T04:17:44.221Z,99.90
2019-04-22T04:22:54.283Z,99.90
2019-04-22T04:30:23.221Z,99.90
2019-04-22T04:37:50.112Z,99.90
2019-04-22T04:40:20.629Z,99.90
2019-04-22T04:42:39.976Z,99.90
2019-04-22T04:45:24.013Z,99.90
2019-04-22T04:47:47.770Z,99.90
2019-04-22T04:50:09.246Z,99.90
2019-04-22T04:52:52.822Z,99.90
2019-04-22T04:55:18.139Z,99.90
2019-04-22T04:57:52.564Z,99.90
2019-04-22T05:02:44.632Z,99.90
2019-04-22T05:05:21.085Z,99.90
2019-04-22T05:07:38.348Z,99.90
2019-04-22T05:10:11.321Z,99.90
2019-04-22T05:15:05.524Z,99.90
2019-04-22T05:17:46.844Z,99.90
2019-04-22T05:19:56.722Z,99.90
2019-04-22T05:22:28.383Z,99.90
2019-04-22T05:24:59.810Z,99.90
2019-04-22T05:27:32.666Z,99.90
2019-04-22T05:30:08.827Z,99.90
2019-04-22T05:32:24.659Z,99.90
2019-04-22T05:34:53.018Z,99.90
2019-04-22T05:39:51.377Z,99.90
2019-04-22T05:42:17.811Z,99.90
2019-04-22T05:44:54.931Z,99.90
2019-04-22T05:47:19.518Z,99.90
2019-04-22T05:49:48.308Z,99.90
2019-04-22T05:52:20.356Z,99.90
2019-04-22T05:54:50.523Z,99.90
2019-04-22T05:57:19.301Z,99.90
2019-04-22T05:59:57.256Z,99.90
2019-04-22T06:02:35.628Z,99.90
2019-04-22T06:04:55.127Z,99.90
2019-04-22T06:07:19.718Z,99.90
2019-04-22T06:09:55.765Z,99.90
2019-04-22T06:12:17.447Z,99.90
2019-04-22T06:14:54.275Z,99.90
2019-04-22T06:17:24.492Z,99.90
2019-04-22T06:19:52.878Z,99.90
2019-04-22T06:22:34.268Z,99.90
2019-04-22T06:24:59.264Z,99.90
2019-04-22T06:29:46.176Z,99.90
2019-04-22T06:32:28.063Z,99.90
2019-04-22T06:34:48.562Z,99.90
2019-04-22T06:40:10.150Z,99.90
2019-04-22T06:42:22.139Z,99.90
2019-04-22T06:44:52.696Z,99.90
2019-04-22T06:47:37.958Z,99.90
2019-04-22T06:49:49.491Z,99.90
2019-04-22T06:52:18.276Z,99.90
2019-04-22T06:54:49.001Z,99.90
2019-04-22T06:57:19.210Z,99.90
2019-04-22T06:59:53.691Z,99.90
2019-04-22T07:02:30.722Z,99.90
2019-04-22T07:04:53.007Z,99.90
2019-04-22T07:07:18.635Z,99.90
2019-04-22T07:09:48.558Z,99.90
2019-04-22T07:12:18.394Z,99.90
2019-04-22T07:17:15.903Z,99.90
2019-04-22T07:19:43.758Z,99.90
2019-04-22T07:22:31.144Z,99.90
2019-04-22T07:24:47.734Z,99.90
2019-04-22T07:27:18.822Z,99.90
2019-04-22T07:29:54.273Z,99.00
2019-04-22T07:32:15.233Z,98.20
2019-04-22T07:34:50.408Z,97.90
2019-04-22T07:39:39.278Z,96.50
2019-04-22T07:42:15.351Z,96.50
2019-04-22T07:44:45.062Z,96.70
2019-04-22T07:52:10.026Z,95.90
2019-04-22T07:54:43.061Z,96.30
2019-04-22T07:57:18.387Z,96.30
2019-04-22T07:59:40.401Z,95.90
2019-04-22T08:02:10.113Z,93.10
2019-04-22T08:07:12.873Z,95.10
2019-04-22T08:09:44.587Z,91.50
2019-04-22T08:12:04.024Z,92.70
2019-04-22T08:14:40.852Z,92.00
2019-04-22T08:17:36.448Z,91.30
2019-04-22T08:19:42.015Z,93.90
2019-04-22T08:22:07.463Z,90.70
2019-04-22T08:24:44.395Z,87.90
2019-04-22T08:27:11.515Z,90.10
2019-04-22T08:29:46.945Z,88.10
2019-04-22T08:32:23.361Z,84.30
2019-04-22T08:34:38.874Z,88.50
2019-04-22T08:39:35.791Z,89.80
2019-04-22T08:42:16.411Z,86.70
2019-04-22T08:45:08.084Z,82.20
2019-04-22T08:47:21.552Z,82.20
2019-04-22T08:49:44.410Z,86.60
2019-04-22T08:52:11.480Z,82.40
2019-04-22T08:54:36.013Z,84.90
2019-04-22T08:57:10.665Z,84.40
2019-04-22T08:59:31.264Z,83.50
2019-04-22T09:02:06.286Z,80.80
2019-04-22T09:04:34.682Z,81.80
2019-04-22T09:07:12.699Z,83.70
2019-04-22T09:12:04.343Z,86.90
2019-04-22T09:14:37.742Z,81.20
2019-04-22T09:17:07.207Z,80.80
2019-04-22T09:19:35.217Z,84.10
2019-04-22T09:22:07.169Z,79.50
2019-04-22T09:24:35.589Z,80.60
2019-04-22T09:27:03.960Z,81.60
2019-04-22T09:32:08.029Z,79.70
2019-04-22T09:34:37.168Z,77.10
2019-04-22T09:37:17.361Z,78.30
2019-04-22T09:39:34.669Z,75.50
2019-04-22T09:42:07.892Z,79.10
2019-04-22T09:44:36.640Z,76.10
2019-04-22T09:47:09.614Z,78.10
2019-04-22T09:49:36.906Z,76.50
2019-04-22T09:52:06.290Z,73.90
2019-04-22T09:54:43.729Z,78.20
2019-04-22T09:57:02.205Z,73.90
2019-04-22T09:59:34.967Z,74.30
2019-04-22T10:02:13.574Z,73.00
2019-04-22T10:04:32.964Z,71.90
2019-04-22T10:06:59.708Z,72.00
2019-04-22T10:12:02.614Z,72.20
2019-04-22T10:14:32.090Z,70.60
2019-04-22T10:17:04.691Z,71.70
2019-04-22T10:19:29.976Z,69.10
2019-04-22T10:24:29.610Z,70.20
2019-04-22T10:26:59.840Z,71.40
2019-04-22T10:29:27.050Z,67.90
2019-04-22T10:31:54.377Z,65.30
2019-04-22T10:34:15.680Z,68.30
2019-04-22T10:36:31.284Z,68.00
2019-04-22T10:39:00.070Z,67.00
2019-04-22T10:41:30.702Z,64.40
2019-04-22T10:43:59.195Z,64.70
2019-04-22T10:46:30.510Z,64.80
2019-04-22T10:48:59.942Z,63.90
2019-04-22T10:51:28.657Z,65.00
2019-04-22T10:53:57.598Z,64.30
2019-04-22T10:56:25.613Z,63.10
2019-04-22T10:58:53.130Z,62.90
2019-04-22T11:01:21.501Z,64.00
2019-04-22T11:03:51.037Z,62.80
2019-04-22T11:06:21.336Z,61.10
2019-04-22T11:08:55.858Z,61.40
2019-04-22T11:11:30.179Z,61.30
2019-04-22T11:13:47.889Z,61.60
2019-04-22T11:16:15.498Z,61.60
2019-04-22T11:18:43.490Z,58.90
2019-04-22T11:21:11.642Z,57.50
2019-04-22T11:23:40.756Z,57.90
2019-04-22T11:26:09.997Z,60.00
2019-04-22T11:28:38.122Z,60.70
2019-04-22T11:31:08.247Z,60.60
2019-04-22T11:33:36.465Z,59.60
2019-04-22T11:36:04.135Z,57.10
2019-04-22T11:38:32.987Z,57.30
2019-04-22T11:41:01.894Z,58.40
2019-04-22T11:43:32.340Z,58.30
2019-04-22T11:46:00.330Z,56.50
2019-04-22T11:48:29.218Z,57.00
2019-04-22T11:50:57.871Z,56.80
2019-04-22T11:53:26.920Z,57.70
2019-04-22T11:55:55.121Z,56.50
2019-04-22T11:58:22.639Z,56.90
2019-04-22T12:00:51.628Z,57.00
2019-04-22T12:03:20.874Z,57.00
2019-04-22T12:05:50.258Z,58.40
2019-04-22T12:08:17.758Z,55.70
2019-04-22T12:10:52.610Z,55.50
2019-04-22T12:13:15.834Z,56.30
2019-04-22T12:16:05.563Z,57.20
2019-04-22T12:18:35.063Z,55.70
2019-04-22T12:21:03.611Z,55.10
2019-04-22T12:23:31.092Z,56.90
2019-04-22T12:26:05.877Z,55.30
2019-04-22T12:28:31.114Z,56.20
2019-04-22T12:30:59.600Z,56.00
2019-04-22T12:33:29.508Z,56.10
2019-04-22T12:35:57.155Z,55.80
2019-04-22T12:38:24.673Z,56.00
2019-04-22T12:40:58.505Z,56.60
2019-04-22T12:43:24.132Z,54.10
2019-04-22T12:45:54.334Z,54.40
2019-04-22T12:48:23.218Z,55.10
2019-04-22T12:50:55.987Z,54.40
2019-04-22T12:53:24.098Z,54.50
2019-04-22T12:55:54.772Z,54.80
2019-04-22T12:58:20.494Z,54.70
2019-04-22T13:00:51.370Z,55.50
2019-04-22T13:03:20.179Z,56.90
2019-04-22T13:05:49.468Z,56.10
2019-04-22T13:08:18.045Z,55.60
2019-04-22T13:10:56.830Z,54.20
2019-04-22T13:13:15.634Z,54.70
2019-04-22T13:15:44.609Z,55.20
2019-04-22T13:18:22.873Z,55.30
2019-04-22T13:20:44.453Z,55.70
2019-04-22T13:23:13.659Z,55.40
2019-04-22T13:25:44.866Z,54.40
2019-04-22T13:28:13.299Z,54.80
2019-04-22T13:30:41.104Z,53.80
2019-04-22T13:33:08.438Z,55.10
2019-04-22T13:35:36.495Z,55.50
2019-04-22T13:38:04.825Z,54.30
2019-04-22T13:40:34.910Z,55.10
2019-04-22T13:43:02.795Z,54.50
2019-04-22T13:45:31.827Z,53.10
2019-04-22T13:48:16.652Z,53.30
2019-04-22T13:50:56.405Z,53.00
2019-04-22T13:53:41.419Z,54.40
2019-04-22T13:55:56.474Z,53.90
2019-04-22T13:58:14.081Z,54.40
2019-04-22T14:00:34.466Z,54.50
2019-04-22T14:03:06.820Z,54.60
2019-04-22T14:05:37.033Z,54.50
2019-04-22T14:08:06.313Z,55.70
2019-04-22T14:10:34.460Z,55.40
2019-04-22T14:13:02.050Z,54.60
2019-04-22T14:15:31.869Z,54.70
2019-04-22T14:18:01.023Z,54.50
2019-04-22T14:20:31.408Z,53.70
2019-04-22T14:23:03.090Z,52.30
2019-04-22T14:25:30.540Z,53.60
2019-04-22T14:28:05.559Z,54.10
2019-04-22T14:30:30.513Z,53.90
2019-04-22T14:32:58.160Z,54.10
2019-04-22T14:35:27.303Z,54.40
2019-04-22T14:37:56.446Z,54.80
2019-04-22T14:40:28.144Z,54.30
2019-04-22T14:44:43.033Z,53.30
2019-04-22T14:46:15.443Z,54.00
2019-04-22T14:48:22.683Z,53.90
2019-04-22T14:50:46.699Z,54.50
2019-04-22T14:53:19.559Z,54.30
2019-04-22T14:55:29.047Z,53.00
2019-04-22T14:57:56.906Z,54.00
2019-04-22T15:00:27.054Z,54.10
2019-04-22T15:02:55.471Z,53.40
2019-04-22T15:05:23.931Z,53.40
2019-04-22T15:07:52.918Z,53.70
2019-04-22T15:10:22.193Z,52.90
2019-04-22T15:12:53.830Z,53.20
2019-04-22T15:15:31.276Z,53.60
2019-04-22T15:18:01.062Z,53.80
2019-04-22T15:20:50.506Z,54.20
2019-04-22T15:23:16.996Z,54.20
2019-04-22T15:25:44.538Z,54.70
2019-04-22T15:28:13.312Z,55.30
2019-04-22T15:30:41.550Z,53.20
2019-04-22T15:33:09.695Z,53.80
2019-04-22T15:35:37.685Z,53.80
2019-04-22T15:38:06.936Z,52.90
2019-04-22T15:40:34.882Z,53.90
2019-04-22T15:43:02.679Z,53.30
2019-04-22T15:45:30.608Z,53.50
2019-04-22T15:47:58.036Z,53.30
2019-04-22T15:50:26.723Z,53.90
2019-04-22T15:52:57.149Z,53.10
2019-04-22T15:55:23.096Z,53.70
2019-04-22T15:57:52.017Z,53.50
2019-04-22T16:00:31.989Z,54.50
2019-04-22T16:02:49.864Z,54.30
2019-04-22T16:05:18.419Z,54.40
2019-04-22T16:07:45.814Z,54.30
2019-04-22T16:10:13.677Z,54.20
2019-04-22T16:12:52.022Z,53.90
2019-04-22T16:15:11.627Z,54.10
2019-04-22T16:17:40.434Z,54.80
2019-04-22T16:20:09.107Z,55.10
2019-04-22T16:22:55.008Z,55.30
2019-04-22T16:25:25.108Z,55.10
2019-04-22T16:27:52.691Z,55.30
2019-04-22T16:30:21.516Z,55.40
2019-04-22T16:32:55.036Z,55.50
2019-04-22T16:35:22.678Z,55.30
2019-04-22T16:37:50.789Z,55.70
2019-04-22T16:40:18.681Z,55.70
2019-04-22T16:42:53.332Z,55.70
2019-04-22T16:45:15.766Z,55.70
2019-04-22T16:47:43.930Z,56.10
2019-04-22T16:50:12.063Z,56.00
2019-04-22T16:52:39.891Z,55.70
2019-04-22T16:55:08.731Z,55.60
2019-04-22T16:57:37.823Z,56.10
2019-04-22T17:00:11.170Z,56.50
2019-04-22T17:02:58.610Z,56.60
2019-04-22T17:05:29.486Z,56.40
2019-04-22T17:07:58.242Z,56.20
2019-04-22T17:10:26.163Z,56.60
2019-04-22T17:13:03.414Z,56.90
2019-04-22T17:15:42.958Z,56.20
2019-04-22T17:18:10.477Z,56.70
2019-04-22T17:20:38.417Z,56.50
2019-04-22T17:23:07.352Z,56.40
2019-04-22T17:25:36.299Z,56.70
2019-04-22T17:28:05.569Z,56.40
2019-04-22T17:30:33.258Z,56.50
2019-04-22T17:33:00.985Z,56.60
2019-04-22T17:35:30.125Z,56.80
2019-04-22T17:38:08.939Z,56.90
2019-04-22T17:40:47.139Z,57.50
2019-04-22T17:43:29.842Z,57.80
2019-04-22T17:45:58.470Z,57.60
2019-04-22T17:48:31.203Z,57.90
2019-04-22T17:51:10.497Z,58.00
2019-04-22T17:53:33.527Z,58.50
2019-04-22T17:56:02.594Z,58.80
2019-04-22T17:58:34.742Z,59.30
2019-04-22T18:01:02.746Z,60.10
2019-04-22T18:03:21.638Z,60.90
2019-04-22T18:05:49.602Z,61.60
2019-04-22T18:08:29.101Z,62.40
2019-04-22T18:10:59.930Z,62.90
2019-04-22T18:13:34.958Z,63.50
2019-04-22T18:16:02.073Z,63.90
2019-04-22T18:18:32.895Z,64.20
2019-04-22T18:20:52.041Z,64.60
2019-04-22T18:23:14.597Z,65.10
2019-04-22T18:26:00.412Z,65.40
2019-04-22T18:28:30.548Z,65.90
2019-04-22T18:30:56.165Z,66.00
2019-04-22T18:33:24.353Z,66.30
2019-04-22T18:35:55.282Z,66.60
2019-04-22T18:38:42.360Z,66.70
2019-04-22T18:40:56.078Z,66.90
2019-04-22T18:43:28.862Z,67.00
2019-04-22T18:46:02.024Z,67.10
2019-04-22T18:48:27.283Z,67.20
2019-04-22T18:51:09.986Z,67.20
2019-04-22T18:53:35.478Z,67.30
2019-04-22T18:56:19.527Z,67.50
2019-04-22T18:58:42.085Z,67.50
2019-04-22T19:00:55.042Z,67.50
2019-04-22T19:03:28.332Z,67.70
2019-04-22T19:06:24.326Z,67.70
2019-04-22T19:08:46.695Z,67.70
2019-04-22T19:11:12.640Z,67.90
2019-04-22T19:16:27.432Z,67.50
2019-04-22T19:18:50.504Z,67.60
2019-04-22T19:21:17.433Z,67.60
2019-04-22T19:24:05.915Z,67.70
2019-04-22T19:26:50.338Z,67.70
2019-04-22T19:29:05.827Z,67.60
2019-04-22T19:31:34.964Z,67.80
2019-04-22T19:34:05.885Z,67.80
2019-04-22T19:36:35.337Z,67.90
2019-04-22T19:38:59.189Z,67.80
2019-04-22T19:41:37.134Z,68.10
2019-04-22T19:44:05.582Z,68.30
2019-04-22T19:46:28.103Z,68.40
2019-04-22T19:49:03.804Z,68.60
2019-04-22T19:51:49.520Z,68.90
2019-04-22T19:54:00.775Z,68.80
2019-04-22T19:56:26.495Z,69.10
2019-04-22T19:58:56.376Z,69.20
2019-04-22T20:01:50.921Z,69.60
2019-04-22T20:04:46.272Z,69.60
2019-04-22T20:06:56.567Z,70.00
2019-04-22T20:09:30.065Z,70.20
2019-04-22T20:11:57.621Z,70.50
2019-04-22T20:14:27.042Z,70.60
2019-04-22T20:16:54.404Z,70.90
2019-04-22T20:19:39.836Z,71.20
2019-04-22T20:22:00.041Z,71.40
2019-04-22T20:24:15.656Z,71.70
2019-04-22T20:27:02.923Z,72.20
2019-04-22T20:29:37.655Z,72.30
2019-04-22T20:32:20.317Z,72.80
2019-04-22T20:34:33.787Z,73.00
2019-04-22T20:39:33.448Z,73.70
2019-04-22T20:42:20.859Z,74.10
2019-04-22T20:44:37.260Z,74.50
2019-04-22T20:47:00.399Z,74.90
2019-04-22T20:49:38.378Z,75.30
2019-04-22T20:52:12.293Z,75.50
2019-04-22T20:54:28.947Z,76.10
2019-04-22T20:56:55.032Z,77.00
2019-04-22T20:59:29.944Z,76.90
2019-04-22T21:01:57.879Z,77.30
2019-04-22T21:04:22.432Z,77.90
2019-04-22T21:06:55.996Z,78.30
2019-04-22T21:09:32.250Z,78.90
2019-04-22T21:11:56.709Z,79.50
2019-04-22T21:14:24.480Z,80.20
2019-04-22T21:17:02.175Z,81.00
2019-04-22T21:19:38.334Z,81.50
2019-04-22T21:22:03.478Z,82.20
2019-04-22T21:24:26.521Z,82.90
2019-04-22T21:27:08.959Z,83.50
2019-04-22T21:29:26.343Z,84.40
2019-04-22T21:32:03.087Z,85.20
2019-04-22T21:34:23.401Z,86.30
2019-04-22T21:37:03.913Z,87.10
2019-04-22T21:39:28.907Z,87.80
2019-04-22T21:41:56.991Z,88.90
2019-04-22T21:44:26.615Z,89.90
2019-04-22T21:47:06.791Z,90.40
2019-04-22T21:49:31.083Z,90.60
2019-04-22T21:52:01.304Z,91.00
2019-04-22T21:54:28.621Z,91.40
2019-04-22T21:57:13.417Z,92.00
2019-04-22T21:59:32.112Z,92.20
2019-04-22T22:02:11.883Z,92.60
2019-04-22T22:04:34.710Z,93.00
2019-04-22T22:06:57.154Z,93.50
2019-04-22T22:09:39.114Z,93.80
2019-04-22T22:12:05.158Z,94.30
2019-04-22T22:14:42.563Z,94.80
2019-04-22T22:16:58.796Z,95.30
2019-04-22T22:19:37.997Z,95.70
2019-04-22T22:22:05.951Z,96.20
2019-04-22T22:24:39.968Z,96.50
2019-04-22T22:27:10.389Z,96.80
2019-04-22T22:29:49.258Z,97.30
2019-04-22T22:32:12.932Z,97.70
2019-04-22T22:34:34.579Z,98.00
2019-04-22T22:36:58.603Z,98.30
2019-04-22T22:39:27.444Z,98.60
2019-04-22T22:41:46.026Z,99.00
2019-04-22T22:44:24.430Z,99.40
2019-04-22T22:47:03.606Z,99.60
2019-04-22T22:49:33.400Z,99.80
2019-04-22T22:52:31.265Z,99.90
2019-04-22T22:54:34.145Z,99.90
2019-04-22T22:57:17.791Z,99.90
2019-04-22T22:59:37.222Z,99.90
2019-04-22T23:02:00.201Z,99.90
2019-04-22T23:04:41.091Z,99.90
2019-04-22T23:07:09.297Z,99.90
2019-04-22T23:09:30.694Z,99.90
2019-04-22T23:14:34.403Z,99.90
2019-04-22T23:16:52.971Z,99.90
2019-04-22T23:19:13.588Z,99.90
2019-04-22T23:21:46.822Z,99.90
2019-04-22T23:24:37.757Z,99.90
2019-04-22T23:27:06.617Z,99.90
2019-04-22T23:29:27.007Z,99.90
2019-04-22T23:32:04.468Z,99.90
2019-04-22T23:34:39.104Z,99.90
2019-04-22T23:37:13.335Z,99.90
2019-04-22T23:39:48.541Z,99.90
2019-04-22T23:42:19.372Z,99.90
2019-04-22T23:44:41.976Z,99.90
2019-04-22T23:47:11.201Z,99.90
2019-04-22T23:49:42.044Z,99.90
2019-04-22T23:52:22.698Z,99.90
2019-04-22T23:54:53.875Z,99.90
